Aérodrome :
LOGIN :

S'inscrire | Disclaimer

   EN    FR    IT 

 










Légende :    VFR   VFR Marginal   IFR   IFR Intensif   IFR Très Intensif
Visi : 
Plafond : 
>= 8 km
>= 3000ft
5 à 8 km
1000 à 3000 ft
1500m à 5 km
500 à 1000 ft
800 à 1500m
200 à 500 ft
< 800m
< 200 ft
Symboles :   Orages  Brouillard  Fortes neiges  Fortes précipitations  Vent > 20 kt
SIGMETs :   Divers  Orages  Givrage  Turbulence  Onde Orograph.  Cendres Volcan.







- Altitude de l'aérodrome : 3 ft
- Code IATA : LWR


EHLW - Leuuwarden Air Base

DERNIER METAR :
  • 210839Z AUTO 20007KT 170V230 7000 BR FEW015 13/11 Q1027 WHT

METARs EXPIRÉS :
  • 210825Z AUTO 20008KT 160V220 7000 BR NCD 13/11 Q1027 WHT
  • 210755Z AUTO 20007KT 160V230 6000 BR OVC034 12/10 Q1027 WHT
  • 210739Z AUTO 19005KT 5000 BR BKN033 11/10 Q1027 WHT
  • 210726Z AUTO 19007KT 5000 BR SCT034 11/10 Q1027 WHT
  • 210725Z AUTO 19006KT 4800 BR FEW035 11/10 Q1027 GRN
  • 210706Z AUTO 19006KT 4900 BR NCD 11/10 Q1027 GRN
  • 210655Z AUTO 19005KT 170V230 4500 BR NCD 11/10 Q1027 GRN
  • 210625Z AUTO 20006KT 4200 BR NCD 11/10 Q1027 GRN
  • 210555Z AUTO 21007KT 4500 BR BKN037 11/11 Q1027 GRN

TAF COR TAF EHLW
Valide du 21 à 05h jusqu'au 21 à 17h UTC


210437Z 2105/2117 19005KT 3000 BR BKN035
BECMG 2106/2108 6000 NSW
BECMG 2108/2110 22010G20KT 9999 FEW012 BKN018 BKN035
Pas de NOTAMs connus pour ce terrain.



MET'MAP, la Météo Aéronautique d'un coup d'oeil ! - Copyright ORBIFLY Décembre 2007 - Disclaimer

ORBIFLY MET'MAP TEAM :

Programmation & Développement : Alexandra Zaïnal
Conception & Développement : Baudouin d'Aumeries
Co-Programmation & Développement : Marc-Olivier Méhu
Soutien technique & logistique : Manuel Goepfert

Contact : metmap@orbifly.com




SOURCES & CREDITS :

   NOAA